Mount Desert, Maine
Current Conditions -  °F | °C
As of 3:35 AM on Tuesday 27 Jan 2015 (Local Time) from KBHB Reporting Station
Overcast Overcast  
Wind Chill: -12°   Ceiling: 1800
Heat Index: 10°   Visibility: 1.2mi
Dew Point:   Wind: 30mph
Humidity: 85%   Direction: 30°NNE
Pressure: 29.92"   Gusts: 37mph
Location:  44.36°N, 68.33°W
Report Text: KBHB 270835Z 03026G32KT 1 1/4SM OVC018 M12/M14 A2992 RMK AO1
Loading
Personal Weather Stations






























Interactive Weather Map New forecast layout! Learn more

10-Day Weather Forecast

Advertisements
Track Severe Weather on mobile